createdAt,value
2023-10-03T00:01:09.981Z,19.83
2023-10-03T00:03:14.804Z,23.70
2023-10-03T00:05:20.637Z,22.70
2023-10-03T00:07:24.018Z,21.57
2023-10-03T00:09:29.578Z,22.40
2023-10-03T00:11:34.490Z,21.43
2023-10-03T00:13:37.955Z,21.50
2023-10-03T00:15:44.972Z,22.30
2023-10-03T00:17:49.245Z,21.50
2023-10-03T00:19:52.806Z,23.73
2023-10-03T00:21:56.258Z,20.40
2023-10-03T00:23:59.627Z,20.63
2023-10-03T00:26:07.264Z,21.40
2023-10-03T00:28:12.099Z,20.67
2023-10-03T00:30:16.321Z,21.20
2023-10-03T00:32:19.921Z,22.00
2023-10-03T00:34:24.354Z,22.43
2023-10-03T00:36:28.042Z,23.23
2023-10-03T00:38:32.019Z,21.77
2023-10-03T00:40:37.124Z,21.67
2023-10-03T00:42:42.116Z,20.27
2023-10-03T00:44:46.204Z,22.67
2023-10-03T00:46:49.730Z,20.03
2023-10-03T00:48:52.623Z,21.53
2023-10-03T00:50:57.100Z,22.40
2023-10-03T00:53:06.289Z,22.03
2023-10-03T00:55:12.578Z,20.30
2023-10-03T00:57:16.198Z,21.47
2023-10-03T00:59:21.143Z,21.97
2023-10-03T01:01:28.394Z,20.70
2023-10-03T01:03:34.293Z,21.57
2023-10-03T01:05:39.284Z,21.63
2023-10-03T01:07:42.996Z,23.27
2023-10-03T01:09:46.421Z,21.87
2023-10-03T01:11:53.279Z,23.83
2023-10-03T01:14:00.241Z,22.63
2023-10-03T01:16:07.016Z,23.70
2023-10-03T01:18:15.253Z,31.23
2023-10-03T01:20:25.638Z,37.57
2023-10-03T01:22:29.296Z,22.53
2023-10-03T01:24:34.291Z,25.40
2023-10-03T01:26:36.912Z,21.93
2023-10-03T01:28:41.054Z,20.63
2023-10-03T01:30:44.817Z,23.67
2023-10-03T01:32:53.260Z,21.00
2023-10-03T01:34:55.828Z,21.80
2023-10-03T01:36:59.457Z,21.13
2023-10-03T01:39:04.216Z,22.20
2023-10-03T01:41:09.256Z,24.10
2023-10-03T01:43:12.696Z,21.67
2023-10-03T01:45:18.491Z,21.13
2023-10-03T01:47:22.353Z,22.40
2023-10-03T01:49:26.740Z,21.47
2023-10-03T01:51:30.189Z,22.67
2023-10-03T01:53:33.694Z,23.20
2023-10-03T01:55:37.380Z,22.90
2023-10-03T01:57:42.798Z,20.57
2023-10-03T01:59:46.343Z,26.30
2023-10-03T02:01:52.808Z,24.97
2023-10-03T02:05:59.667Z,25.17
2023-10-03T02:08:08.851Z,25.47
2023-10-03T02:10:13.844Z,24.63
2023-10-03T02:12:17.314Z,22.97
2023-10-03T02:14:22.069Z,22.77
2023-10-03T02:16:26.001Z,22.73
2023-10-03T02:18:30.257Z,26.37
2023-10-03T02:20:39.631Z,24.67
2023-10-03T02:22:43.058Z,22.87
2023-10-03T02:24:46.944Z,21.40
2023-10-03T02:26:50.512Z,22.33
2023-10-03T02:28:53.966Z,21.30
2023-10-03T02:31:00.644Z,23.00
2023-10-03T02:33:11.245Z,23.60
2023-10-03T02:35:15.756Z,23.30
2023-10-03T02:37:19.404Z,24.13
2023-10-03T02:39:26.397Z,23.87
2023-10-03T02:41:31.940Z,24.87
2023-10-03T02:43:39.999Z,24.70
2023-10-03T02:45:44.494Z,24.13
2023-10-03T02:47:50.141Z,23.90
2023-10-03T02:49:53.944Z,24.43
2023-10-03T02:52:00.974Z,26.27
2023-10-03T02:54:04.974Z,22.93
2023-10-03T02:56:09.683Z,22.57
2023-10-03T02:58:15.912Z,21.50
2023-10-03T03:00:20.854Z,22.97
2023-10-03T03:02:23.586Z,23.03
2023-10-03T03:04:30.863Z,23.03
2023-10-03T03:06:34.373Z,25.33
2023-10-03T03:08:41.306Z,22.43
2023-10-03T03:10:44.774Z,21.33
2023-10-03T03:12:48.161Z,25.20
2023-10-03T03:14:53.615Z,23.53
2023-10-03T03:16:57.347Z,22.37
2023-10-03T03:19:01.707Z,23.10
2023-10-03T03:21:10.374Z,23.30
2023-10-03T03:23:15.136Z,22.20
2023-10-03T03:25:25.967Z,21.43
2023-10-03T03:27:33.733Z,21.77
2023-10-03T03:29:37.802Z,22.80
2023-10-03T03:31:44.013Z,21.57
2023-10-03T03:33:48.153Z,22.97
2023-10-03T03:35:50.636Z,20.87
2023-10-03T03:37:57.712Z,21.27
2023-10-03T03:40:13.555Z,21.87
2023-10-03T03:42:18.327Z,30.93
2023-10-03T03:44:22.340Z,20.93
2023-10-03T03:46:25.917Z,21.47
2023-10-03T03:48:29.498Z,22.97
2023-10-03T03:50:35.432Z,21.60
2023-10-03T03:52:41.942Z,21.67
2023-10-03T03:54:46.702Z,21.40
2023-10-03T03:56:50.504Z,22.50
2023-10-03T03:58:55.129Z,21.13
2023-10-03T04:00:58.568Z,22.07
2023-10-03T04:03:06.501Z,20.80
2023-10-03T04:05:13.179Z,23.40
2023-10-03T04:07:17.911Z,23.70
2023-10-03T04:09:21.351Z,30.57
2023-10-03T04:11:26.405Z,21.70
2023-10-03T04:13:31.650Z,22.17
2023-10-03T04:15:35.131Z,20.40
2023-10-03T04:17:38.644Z,19.67
2023-10-03T04:19:42.235Z,22.30
2023-10-03T04:21:48.172Z,19.73
2023-10-03T04:23:57.462Z,21.57
2023-10-03T04:26:05.549Z,21.67
2023-10-03T04:28:12.840Z,20.83
2023-10-03T04:30:16.174Z,21.80
2023-10-03T04:32:19.898Z,21.03
2023-10-03T04:34:23.309Z,21.33
2023-10-03T04:36:27.581Z,20.93
2023-10-03T04:38:31.165Z,20.23
2023-10-03T04:40:36.320Z,20.10
2023-10-03T04:42:39.565Z,21.33
2023-10-03T04:44:44.335Z,24.20
2023-10-03T04:46:49.365Z,25.80
2023-10-03T04:48:52.851Z,21.20
2023-10-03T04:50:57.478Z,22.37
2023-10-03T04:53:01.407Z,20.27
2023-10-03T04:55:05.321Z,21.47
2023-10-03T04:57:08.689Z,19.30
2023-10-03T04:59:12.075Z,21.23
2023-10-03T05:01:17.208Z,20.27
2023-10-03T05:03:21.233Z,19.40
2023-10-03T05:05:26.462Z,20.33
2023-10-03T05:07:29.979Z,20.03
2023-10-03T05:09:34.264Z,18.93
2023-10-03T05:11:37.715Z,18.13
2023-10-03T05:13:44.378Z,22.07
2023-10-03T05:15:47.769Z,20.10
2023-10-03T05:17:52.520Z,18.43
2023-10-03T05:19:56.186Z,19.00
2023-10-03T05:21:59.787Z,19.53
2023-10-03T05:24:05.059Z,19.07
2023-10-03T05:26:08.654Z,18.33
2023-10-03T05:28:12.413Z,19.00
2023-10-03T05:30:16.443Z,19.20
2023-10-03T05:32:22.657Z,18.77
2023-10-03T05:34:27.350Z,18.53
2023-10-03T05:36:30.765Z,19.00
2023-10-03T05:38:34.186Z,19.50
2023-10-03T05:40:37.981Z,18.80
2023-10-03T05:42:48.206Z,18.67
2023-10-03T05:44:52.544Z,17.67
2023-10-03T05:46:57.092Z,18.00
2023-10-03T05:49:00.902Z,17.50
2023-10-03T05:51:07.593Z,18.10
2023-10-03T05:53:11.131Z,18.30
2023-10-03T05:55:15.135Z,18.23
2023-10-03T05:57:18.500Z,17.17
2023-10-03T05:59:22.152Z,19.27
2023-10-03T06:01:25.537Z,21.23
2023-10-03T06:03:28.979Z,17.33
2023-10-03T06:05:33.102Z,17.43
2023-10-03T06:07:38.411Z,18.80
2023-10-03T06:09:41.749Z,17.50
2023-10-03T06:11:45.292Z,18.57
2023-10-03T06:13:48.695Z,17.70
2023-10-03T06:15:53.295Z,17.53
2023-10-03T06:17:56.877Z,21.03
2023-10-03T06:20:00.301Z,18.47
2023-10-03T06:22:04.527Z,18.03
2023-10-03T06:24:09.590Z,17.80
2023-10-03T06:26:13.060Z,17.77
2023-10-03T06:28:16.489Z,17.50
2023-10-03T06:30:20.067Z,18.50
2023-10-03T06:32:23.598Z,16.70
2023-10-03T06:34:27.403Z,17.60
2023-10-03T06:36:30.832Z,17.97
2023-10-03T06:38:34.363Z,17.20
2023-10-03T06:40:42.115Z,16.57
2023-10-03T06:42:45.547Z,17.33
2023-10-03T06:44:49.264Z,16.80
2023-10-03T06:46:54.073Z,17.90
2023-10-03T06:48:57.636Z,18.30
2023-10-03T06:51:05.398Z,30.97
2023-10-03T06:53:09.940Z,18.50
2023-10-03T06:55:16.894Z,16.30
2023-10-03T06:57:21.800Z,16.73
2023-10-03T06:59:25.292Z,17.80
2023-10-03T07:01:28.915Z,16.97
2023-10-03T07:03:32.440Z,17.10
2023-10-03T07:05:35.979Z,17.50
2023-10-03T07:07:40.748Z,15.90
2023-10-03T07:09:44.670Z,15.13
2023-10-03T07:11:50.075Z,14.17
2023-10-03T07:13:55.362Z,14.17
2023-10-03T07:15:59.804Z,15.27
2023-10-03T07:18:05.849Z,14.30
2023-10-03T07:20:11.753Z,13.63
2023-10-03T07:22:15.144Z,14.93
2023-10-03T07:24:19.131Z,15.00
2023-10-03T07:26:22.696Z,14.47
2023-10-03T07:28:26.193Z,14.10
2023-10-03T07:30:31.000Z,14.90
2023-10-03T07:32:35.426Z,14.83
2023-10-03T07:34:43.496Z,13.97
2023-10-03T07:36:46.908Z,13.83
2023-10-03T07:38:49.649Z,13.40
2023-10-03T07:40:53.169Z,12.43
2023-10-03T07:42:56.608Z,13.40
2023-10-03T07:47:04.918Z,12.23
2023-10-03T07:49:09.123Z,17.10
2023-10-03T07:51:17.360Z,13.43
2023-10-03T07:53:20.888Z,13.63
2023-10-03T07:55:26.284Z,12.70
2023-10-03T07:57:30.113Z,11.27
2023-10-03T07:59:33.439Z,12.20
2023-10-03T08:01:57.435Z,11.60
2023-10-03T08:04:09.382Z,12.47
2023-10-03T08:06:16.129Z,11.97
2023-10-03T08:08:23.367Z,11.10
2023-10-03T08:10:30.125Z,11.80
2023-10-03T08:12:39.317Z,11.80
2023-10-03T08:14:43.348Z,11.40
2023-10-03T08:16:48.453Z,11.63
2023-10-03T08:18:58.816Z,11.50
2023-10-03T08:21:05.005Z,11.30
2023-10-03T08:23:10.629Z,12.60
2023-10-03T08:25:13.120Z,11.93
2023-10-03T08:27:20.524Z,11.70
2023-10-03T08:29:24.566Z,11.93
2023-10-03T08:31:28.677Z,12.03
2023-10-03T08:33:37.391Z,11.27
2023-10-03T08:35:41.160Z,11.70
2023-10-03T08:37:45.030Z,11.97
2023-10-03T08:39:49.869Z,11.53
2023-10-03T08:42:02.013Z,11.40
2023-10-03T08:44:13.418Z,11.93
2023-10-03T08:46:17.843Z,12.13
2023-10-03T08:48:26.177Z,11.83
2023-10-03T08:50:35.740Z,11.80
2023-10-03T08:52:48.104Z,11.27
2023-10-03T08:54:56.248Z,12.33
2023-10-03T08:57:00.513Z,11.63
2023-10-03T08:59:09.130Z,10.57
2023-10-03T09:01:18.836Z,11.10
2023-10-03T09:03:21.914Z,11.20
2023-10-03T09:05:25.763Z,10.80
2023-10-03T09:07:45.634Z,10.37
2023-10-03T09:09:49.294Z,11.97
2023-10-03T09:11:57.794Z,11.67
2023-10-03T09:14:02.566Z,11.00
2023-10-03T09:16:09.700Z,16.77
2023-10-03T09:18:16.813Z,11.27
2023-10-03T09:20:26.023Z,11.30
2023-10-03T09:22:32.767Z,11.40
2023-10-03T09:24:44.597Z,11.13
2023-10-03T09:26:51.940Z,10.70
2023-10-03T09:28:59.782Z,10.70
2023-10-03T09:31:09.276Z,10.60
2023-10-03T09:33:17.933Z,11.07
2023-10-03T09:35:22.381Z,10.10
2023-10-03T09:37:31.696Z,10.30
2023-10-03T09:39:40.893Z,10.53
2023-10-03T09:41:44.669Z,10.33
2023-10-03T09:43:50.467Z,10.60
2023-10-03T09:45:57.308Z,10.80
2023-10-03T09:48:07.497Z,9.63
2023-10-03T09:50:11.621Z,9.50
2023-10-03T09:52:24.036Z,10.43
2023-10-03T09:54:31.906Z,10.67
2023-10-03T09:56:41.480Z,10.97
2023-10-03T09:58:47.868Z,10.70
2023-10-03T10:00:53.054Z,10.70
2023-10-03T10:03:04.821Z,10.20
2023-10-03T10:05:20.747Z,9.87
2023-10-03T10:07:30.474Z,11.23
2023-10-03T10:09:40.122Z,10.90
2023-10-03T10:12:20.809Z,10.03
2023-10-03T10:14:24.703Z,9.73
2023-10-03T10:16:29.626Z,10.03
2023-10-03T10:19:02.554Z,9.93
2023-10-03T10:21:24.397Z,10.00
2023-10-03T10:23:36.171Z,9.90
2023-10-03T10:25:43.447Z,11.10
2023-10-03T10:27:47.336Z,11.00
2023-10-03T10:30:01.728Z,12.30
2023-10-03T10:32:18.863Z,9.70
2023-10-03T10:34:45.135Z,9.47
2023-10-03T10:37:02.768Z,9.30
2023-10-03T10:39:06.523Z,9.13
2023-10-03T10:41:19.143Z,9.33
2023-10-03T10:43:22.556Z,9.90
2023-10-03T10:45:25.091Z,8.80
2023-10-03T10:47:29.582Z,10.67
2023-10-03T10:50:18.178Z,9.43
2023-10-03T10:52:24.168Z,9.00
2023-10-03T10:54:27.730Z,11.53
2023-10-03T10:56:33.278Z,9.90
2023-10-03T10:58:46.953Z,9.70
2023-10-03T11:00:59.499Z,8.43
2023-10-03T11:03:03.594Z,8.80
2023-10-03T11:05:11.948Z,8.83
2023-10-03T11:07:22.554Z,9.57
2023-10-03T11:09:26.908Z,8.23
2023-10-03T11:11:40.038Z,8.67
2023-10-03T11:13:47.227Z,10.43
2023-10-03T11:15:51.384Z,11.00
2023-10-03T11:17:54.926Z,10.93
2023-10-03T11:19:58.531Z,13.27
2023-10-03T11:22:05.230Z,13.30
2023-10-03T11:24:19.521Z,12.10
2023-10-03T11:26:22.929Z,13.13
2023-10-03T11:28:29.429Z,13.87
2023-10-03T11:30:33.106Z,14.70
2023-10-03T11:32:37.154Z,12.80
2023-10-03T11:34:41.300Z,12.53
2023-10-03T11:36:46.061Z,14.03
2023-10-03T11:38:51.493Z,11.87
2023-10-03T11:40:54.939Z,12.27
2023-10-03T11:43:04.040Z,12.60
2023-10-03T11:45:10.357Z,11.43
2023-10-03T11:47:23.771Z,11.00
2023-10-03T11:49:28.608Z,10.57
2023-10-03T11:51:31.128Z,10.40
2023-10-03T11:53:34.541Z,10.93
2023-10-03T11:55:42.040Z,13.33
2023-10-03T11:57:46.099Z,10.50
2023-10-03T11:59:49.506Z,12.33
2023-10-03T12:01:58.113Z,9.23
2023-10-03T12:04:02.025Z,9.80
2023-10-03T12:06:05.687Z,8.73
2023-10-03T12:08:08.280Z,8.60
2023-10-03T12:10:13.268Z,8.83
2023-10-03T12:12:18.114Z,6.80
2023-10-03T12:14:21.535Z,5.70
2023-10-03T12:16:25.912Z,5.07
2023-10-03T12:18:29.471Z,4.70
2023-10-03T12:20:35.396Z,5.90
2023-10-03T12:22:42.727Z,5.47
2023-10-03T12:24:46.109Z,6.07
2023-10-03T12:26:49.649Z,6.30
2023-10-03T12:28:54.601Z,5.37
2023-10-03T12:30:58.067Z,5.37
2023-10-03T12:33:01.678Z,4.50
2023-10-03T12:35:05.752Z,4.53
2023-10-03T12:37:12.628Z,4.07
2023-10-03T12:39:19.486Z,4.20
2023-10-03T12:41:30.064Z,4.70
2023-10-03T12:43:35.001Z,3.53
2023-10-03T12:45:40.048Z,4.30
2023-10-03T12:47:48.266Z,5.00
2023-10-03T12:49:51.879Z,5.20
2023-10-03T12:51:56.033Z,5.53
2023-10-03T12:53:59.875Z,5.70
2023-10-03T12:56:03.285Z,5.13
2023-10-03T12:58:06.889Z,6.30
2023-10-03T13:00:13.519Z,4.77
2023-10-03T13:02:18.487Z,4.00
2023-10-03T13:04:23.416Z,4.37
2023-10-03T13:06:27.717Z,3.60
2023-10-03T13:08:31.946Z,4.43
2023-10-03T13:10:35.853Z,5.10
2023-10-03T13:12:42.513Z,3.30
2023-10-03T13:14:46.162Z,3.50
2023-10-03T13:16:48.619Z,3.47
2023-10-03T13:18:54.676Z,4.13
2023-10-03T13:20:58.676Z,3.70
2023-10-03T13:23:02.326Z,3.43
2023-10-03T13:25:06.715Z,4.47
2023-10-03T13:27:10.696Z,4.60
2023-10-03T13:29:14.153Z,4.60
2023-10-03T13:31:17.668Z,4.00
2023-10-03T13:33:21.151Z,4.30
2023-10-03T13:35:26.388Z,4.67
2023-10-03T13:37:30.563Z,5.00
2023-10-03T13:39:33.883Z,4.70
2023-10-03T13:41:39.429Z,5.60
2023-10-03T13:43:42.910Z,5.13
2023-10-03T13:45:47.000Z,5.00
2023-10-03T13:47:50.534Z,6.13
2023-10-03T13:49:54.153Z,5.10
2023-10-03T13:52:01.191Z,5.17
2023-10-03T13:54:06.328Z,5.50
2023-10-03T13:56:09.943Z,5.73
2023-10-03T13:58:13.316Z,6.17
2023-10-03T14:00:17.377Z,6.20
2023-10-03T14:02:23.404Z,5.43
2023-10-03T14:04:26.908Z,5.53
2023-10-03T14:06:31.420Z,6.67
2023-10-03T14:08:36.428Z,6.27
2023-10-03T14:10:44.768Z,6.50
2023-10-03T14:12:48.504Z,6.57
2023-10-03T14:14:52.016Z,7.00
2023-10-03T14:16:59.473Z,6.63
2023-10-03T14:19:03.165Z,7.40
2023-10-03T14:21:11.393Z,7.40
2023-10-03T14:23:15.013Z,7.90
2023-10-03T14:25:21.437Z,9.67
2023-10-03T14:27:24.860Z,8.43
2023-10-03T14:29:29.361Z,8.70
2023-10-03T14:31:31.929Z,7.90
2023-10-03T14:33:35.455Z,8.90
2023-10-03T14:35:41.724Z,9.43
2023-10-03T14:37:48.034Z,9.83
2023-10-03T14:39:51.431Z,10.00
2023-10-03T14:41:57.405Z,9.37
2023-10-03T14:44:04.932Z,9.23
2023-10-03T14:46:08.731Z,8.80
2023-10-03T14:48:12.348Z,8.50
2023-10-03T14:50:15.862Z,8.67
2023-10-03T14:52:19.455Z,8.00
2023-10-03T14:54:22.912Z,7.20
2023-10-03T14:56:26.373Z,7.70
2023-10-03T14:58:36.512Z,7.53
2023-10-03T15:00:42.552Z,7.00
2023-10-03T15:02:46.396Z,8.20
2023-10-03T15:04:51.187Z,8.37
2023-10-03T15:06:54.818Z,8.30
2023-10-03T15:08:59.076Z,8.93
2023-10-03T15:11:03.946Z,9.60
2023-10-03T15:13:08.013Z,8.07
2023-10-03T15:15:14.717Z,8.60
2023-10-03T15:17:18.210Z,8.90
2023-10-03T15:19:21.604Z,9.37
2023-10-03T15:21:25.679Z,9.87
2023-10-03T15:23:31.069Z,9.73
2023-10-03T15:25:35.254Z,9.70
2023-10-03T15:27:38.116Z,10.57
2023-10-03T15:29:42.036Z,10.30
2023-10-03T15:31:48.569Z,10.33
2023-10-03T15:33:53.609Z,10.00
2023-10-03T15:35:57.668Z,10.47
2023-10-03T15:38:01.057Z,10.13
2023-10-03T15:40:05.800Z,10.17
2023-10-03T15:42:09.258Z,9.20
2023-10-03T15:44:12.966Z,8.73
2023-10-03T15:46:17.385Z,8.17
2023-10-03T15:48:23.649Z,10.03
2023-10-03T15:50:28.342Z,9.47
2023-10-03T15:52:31.934Z,9.40
2023-10-03T15:54:36.468Z,9.30
2023-10-03T15:56:39.909Z,9.30
2023-10-03T15:58:43.372Z,8.67
2023-10-03T16:00:46.919Z,8.47
2023-10-03T16:02:50.709Z,8.20
2023-10-03T16:04:56.571Z,7.53
2023-10-03T16:07:00.014Z,8.20
2023-10-03T16:09:09.434Z,7.97
2023-10-03T16:11:13.935Z,8.40
2023-10-03T16:13:19.345Z,8.70
2023-10-03T16:15:23.014Z,7.93
2023-10-03T16:17:26.546Z,7.73
2023-10-03T16:19:32.444Z,7.47
2023-10-03T16:21:38.720Z,7.23
2023-10-03T16:23:42.665Z,6.70
2023-10-03T16:25:47.263Z,7.67
2023-10-03T16:27:51.219Z,6.80
2023-10-03T16:29:54.951Z,6.30
2023-10-03T16:31:58.402Z,8.47
2023-10-03T16:34:02.250Z,7.47
2023-10-03T16:36:07.094Z,6.97
2023-10-03T16:38:13.841Z,6.43
2023-10-03T16:40:18.469Z,7.40
2023-10-03T16:42:21.976Z,6.30
2023-10-03T16:44:25.638Z,6.30
2023-10-03T16:46:29.163Z,6.60
2023-10-03T16:48:33.187Z,7.60
2023-10-03T16:50:38.068Z,7.40
2023-10-03T16:52:41.357Z,8.30
2023-10-03T16:54:47.872Z,8.13
2023-10-03T16:56:51.321Z,8.30
2023-10-03T16:58:54.706Z,8.03
2023-10-03T17:00:59.017Z,8.00
2023-10-03T17:03:02.502Z,8.20
2023-10-03T17:05:08.484Z,7.80
2023-10-03T17:07:12.082Z,7.57
2023-10-03T17:09:14.757Z,7.40
2023-10-03T17:11:19.614Z,7.80
2023-10-03T17:13:22.897Z,7.33
2023-10-03T17:15:26.342Z,7.73
2023-10-03T17:17:29.793Z,6.97
2023-10-03T17:19:33.292Z,8.60
2023-10-03T17:21:37.262Z,7.80
2023-10-03T17:23:41.863Z,7.47
2023-10-03T17:25:45.834Z,7.40
2023-10-03T17:27:50.805Z,8.63
2023-10-03T17:29:54.289Z,7.70
2023-10-03T17:32:00.822Z,8.50
2023-10-03T17:34:04.993Z,8.97
2023-10-03T17:36:08.912Z,19.77
2023-10-03T17:38:13.167Z,10.13
2023-10-03T17:40:18.263Z,7.73
2023-10-03T17:42:21.342Z,7.70
2023-10-03T17:44:26.172Z,7.60
2023-10-03T17:46:30.032Z,8.10
2023-10-03T17:48:33.979Z,7.40
2023-10-03T17:50:37.627Z,8.63
2023-10-03T17:52:40.780Z,8.90
2023-10-03T17:54:44.653Z,8.23
2023-10-03T17:56:47.150Z,7.50
2023-10-03T17:58:51.097Z,9.80
2023-10-03T18:00:55.920Z,21.67
2023-10-03T18:02:59.521Z,8.37
2023-10-03T18:05:06.864Z,8.33
2023-10-03T18:07:10.918Z,7.80
2023-10-03T18:09:16.176Z,7.70
2023-10-03T18:11:20.651Z,7.87
2023-10-03T18:13:24.028Z,7.90
2023-10-03T18:15:27.900Z,9.00
2023-10-03T18:17:34.160Z,9.13
2023-10-03T18:19:37.887Z,8.43
2023-10-03T18:21:41.352Z,8.17
2023-10-03T18:23:45.290Z,7.40
2023-10-03T18:25:49.074Z,7.77
2023-10-03T18:27:52.535Z,8.10
2023-10-03T18:29:55.980Z,8.77
2023-10-03T18:32:00.728Z,8.10
2023-10-03T18:34:05.793Z,9.33
2023-10-03T18:36:09.485Z,8.70
2023-10-03T18:38:12.884Z,8.40
2023-10-03T18:40:18.361Z,9.80
2023-10-03T18:42:22.191Z,8.03
2023-10-03T18:44:25.676Z,8.77
2023-10-03T18:46:29.038Z,9.03
2023-10-03T18:48:34.486Z,11.60
2023-10-03T18:50:39.245Z,9.50
2023-10-03T18:52:42.749Z,11.57
2023-10-03T18:54:46.295Z,9.47
2023-10-03T18:56:50.204Z,9.60
2023-10-03T18:58:54.955Z,9.37
2023-10-03T19:00:58.979Z,9.43
2023-10-03T19:03:02.525Z,9.40
2023-10-03T19:05:05.864Z,8.73
2023-10-03T19:07:13.129Z,8.90
2023-10-03T19:09:18.005Z,9.43
2023-10-03T19:11:21.705Z,10.33
2023-10-03T19:13:25.179Z,9.23
2023-10-03T19:15:29.839Z,8.97
2023-10-03T19:17:33.629Z,9.33
2023-10-03T19:19:37.313Z,8.80
2023-10-03T19:21:41.598Z,9.33
2023-10-03T19:23:48.252Z,9.40
2023-10-03T19:25:52.145Z,8.97
2023-10-03T19:27:56.647Z,9.97
2023-10-03T19:29:59.357Z,9.67
2023-10-03T19:32:04.133Z,9.77
2023-10-03T19:34:08.072Z,9.00
2023-10-03T19:36:12.624Z,9.50
2023-10-03T19:38:16.247Z,10.00
2023-10-03T19:40:21.654Z,9.10
2023-10-03T19:42:25.394Z,10.47
2023-10-03T19:44:28.917Z,10.80
2023-10-03T19:46:32.330Z,9.60
2023-10-03T19:48:35.988Z,10.10
2023-10-03T19:50:42.009Z,9.30
2023-10-03T19:52:45.914Z,9.83
2023-10-03T19:54:49.247Z,8.77
2023-10-03T19:56:54.683Z,9.00
2023-10-03T19:58:59.518Z,9.17
2023-10-03T20:01:03.104Z,8.13
2023-10-03T20:03:06.888Z,9.50
2023-10-03T20:05:11.275Z,8.47
2023-10-03T20:07:16.326Z,8.17
2023-10-03T20:09:19.771Z,9.13
2023-10-03T20:11:23.243Z,7.57
2023-10-03T20:13:27.993Z,7.83
2023-10-03T20:15:31.821Z,8.23
2023-10-03T20:17:35.338Z,7.60
2023-10-03T20:19:40.366Z,8.30
2023-10-03T20:21:43.830Z,8.03
2023-10-03T20:23:47.295Z,8.63
2023-10-03T20:25:51.042Z,8.20
2023-10-03T20:27:54.800Z,8.93
2023-10-03T20:29:59.637Z,9.40
2023-10-03T20:32:03.971Z,8.20
2023-10-03T20:34:07.613Z,8.27
2023-10-03T20:36:13.515Z,8.43
2023-10-03T20:38:17.016Z,8.23
2023-10-03T20:40:20.693Z,8.67
2023-10-03T20:42:25.202Z,8.73
2023-10-03T20:44:28.734Z,8.57
2023-10-03T20:46:33.632Z,9.30
2023-10-03T20:48:36.105Z,8.60
2023-10-03T20:50:39.544Z,9.37
2023-10-03T20:52:42.993Z,8.70
2023-10-03T20:54:46.852Z,7.93
2023-10-03T20:56:50.620Z,22.03
2023-10-03T20:58:55.605Z,9.83
2023-10-03T21:00:59.021Z,8.50
2023-10-03T21:03:04.412Z,8.23
2023-10-03T21:05:13.962Z,8.70
2023-10-03T21:07:17.767Z,9.57
2023-10-03T21:09:22.972Z,8.10
2023-10-03T21:11:27.853Z,8.40
2023-10-03T21:13:35.237Z,9.40
2023-10-03T21:15:39.566Z,8.90
2023-10-03T21:17:42.077Z,9.07
2023-10-03T21:19:47.031Z,8.70
2023-10-03T21:21:52.820Z,9.60
2023-10-03T21:23:56.241Z,8.97
2023-10-03T21:26:07.243Z,9.23
2023-10-03T21:28:10.830Z,9.97
2023-10-03T21:30:14.590Z,10.03
2023-10-03T21:32:18.156Z,8.23
2023-10-03T21:34:21.765Z,9.67
2023-10-03T21:36:27.229Z,8.63
2023-10-03T21:38:30.185Z,9.67
2023-10-03T21:40:33.616Z,8.87
2023-10-03T21:42:36.260Z,7.80
2023-10-03T21:44:39.635Z,8.70
2023-10-03T21:46:42.983Z,8.50
2023-10-03T21:48:46.488Z,8.97
2023-10-03T21:50:49.859Z,9.30
2023-10-03T21:52:55.484Z,9.40
2023-10-03T21:54:57.861Z,8.17
2023-10-03T21:57:01.199Z,8.37
2023-10-03T21:59:04.887Z,8.47
2023-10-03T22:01:09.517Z,8.33
2023-10-03T22:03:12.119Z,8.93
2023-10-03T22:05:15.541Z,8.70
2023-10-03T22:07:18.938Z,9.37
2023-10-03T22:09:22.798Z,9.10
2023-10-03T22:11:26.908Z,8.80
2023-10-03T22:13:31.983Z,9.03
2023-10-03T22:15:35.713Z,8.63
2023-10-03T22:17:39.132Z,9.90
2023-10-03T22:19:42.565Z,9.20
2023-10-03T22:21:47.193Z,9.27
2023-10-03T22:23:50.512Z,8.77
2023-10-03T22:25:55.548Z,9.20
2023-10-03T22:28:00.044Z,8.60
2023-10-03T22:30:03.540Z,10.60
2023-10-03T22:32:06.939Z,10.07
2023-10-03T22:34:10.446Z,9.87
2023-10-03T22:36:12.854Z,9.57
2023-10-03T22:38:16.448Z,10.43
2023-10-03T22:40:19.911Z,9.57
2023-10-03T22:42:24.739Z,10.27
2023-10-03T22:44:28.178Z,10.30
2023-10-03T22:46:31.628Z,10.30
2023-10-03T22:48:35.307Z,10.03
2023-10-03T22:50:38.875Z,9.77
2023-10-03T22:52:42.397Z,9.57
2023-10-03T22:54:45.892Z,10.20
2023-10-03T22:56:49.247Z,10.17
2023-10-03T22:58:54.604Z,9.80
2023-10-03T23:00:59.840Z,10.13
2023-10-03T23:03:03.936Z,9.70
2023-10-03T23:05:08.204Z,10.00
2023-10-03T23:07:10.817Z,9.27
2023-10-03T23:09:14.189Z,11.63
2023-10-03T23:11:17.548Z,9.77
2023-10-03T23:13:20.904Z,10.63
2023-10-03T23:15:25.708Z,10.33
2023-10-03T23:17:29.242Z,10.00
2023-10-03T23:19:32.866Z,9.30
2023-10-03T23:21:36.341Z,9.23
2023-10-03T23:23:39.729Z,9.17
2023-10-03T23:25:43.426Z,9.93
2023-10-03T23:27:45.868Z,9.40
2023-10-03T23:29:49.158Z,9.50
2023-10-03T23:31:53.963Z,9.47
2023-10-03T23:33:57.628Z,9.07
2023-10-03T23:36:01.802Z,9.13
2023-10-03T23:38:05.488Z,8.90
2023-10-03T23:40:11.949Z,9.23
2023-10-03T23:42:15.400Z,9.43
2023-10-03T23:44:19.659Z,8.60
2023-10-03T23:46:23.917Z,8.60
2023-10-03T23:48:30.946Z,9.00
2023-10-03T23:50:34.931Z,10.20
2023-10-03T23:52:39.429Z,9.33
2023-10-03T23:54:42.832Z,9.40
2023-10-03T23:56:51.289Z,9.23
2023-10-03T23:58:55.011Z,9.43
